Bowen Airport, Australia

1:10 AM AEST on December 08, 2016 (GMT +1000)
Delta | | Change Station

Elev 43 ft 20.02 °S, 148.19 °E | Updated 5 minutes ago

Mostly Cloudy
Mostly Cloudy
79.2 °F
Feels Like 83 °F
N
2.0
Wind Variable Wind from NE
Gusts 4.0 mph

Today
High -- | Low -- °F
--% Chance of Precip.
Yesterday
High -- | Low -- °F
Precip. -- in
Pressure 29.86 in
Visibility 6.2 miles
Clouds Scattered Clouds 2100 ft
Mostly Cloudy 2900 ft
Mostly Cloudy 3700 ft
Heat Index 83 °F
Dew Point 74 °F
Humidity 83%
Rainfall 0.00 in
Snow Depth Not available.
5:19 AM 6:38 PM
First Quarter, 53% visible
METAR YBHM 071500Z AUTO 02005KT 9999 // SCT021 BKN029 BKN037 26/22 Q1011
Pressure 29.86 in
Visibility 6.2 miles
Clouds Scattered Clouds 2100 ft
Mostly Cloudy 2900 ft
Mostly Cloudy 3700 ft
Heat Index 83 °F
Dew Point 74 °F
Humidity 83%
Rainfall 0.00 in
Snow Depth Not available.
5:19 AM 6:38 PM
First Quarter, 53% visible
METAR YBHM 071500Z AUTO 02005KT 9999 // SCT021 BKN029 BKN037 26/22 Q1011

10-Day Weather Forecast

×

Almanac

Astronomy

Dec. 08, 2016 Rise Set
Actual Time
Civil Twilight
Nautical Twilight
Astronomical Twilight
Moon
Length of Visible Light
Length of Day
Tomorrow will be .
, % of the Moon is Illuminated

Today's Extremes

Country Highs Country Lows

Community

WunderPhotos

Upload Photos

1,956,118 photos uploaded!

WunderBlog® & News

Nearby

Air Quality

  Air Quality AQ Index Pollutant
Not available.

Snow Depth

Station Depth Elevation

Earthquake Activity

City Distance Mag. Time & Date
Minimum magnitude displayed is 2.5.

Coastal Water Temperatures

Place Temperature

Stations

Nearby Weather Stations

Station Location Temp. Windchill Dew Point Humidity Wind Precip. Elev Updated Type